Ben Rinnes — V7MZ5 — position and weather

sailwx.info

Track history (hours):
 
Tides and Currents Weather Stations Pressure Air Temp Water Temp Dewpoint Dewpoint Depression Visibility Wind Speed Wind Dir Waves Ship Positions

Ben Rinnes

Last reported at 2018-Jun-19 15:58 UTC. Time now 2018-Jun-19 17:44 UTC.
Position S 23°58' W 046°18'.

Length 179 m; draft 10.1 m.

Type: Cargo ship. MMSI: 538006425.

Date/timePositionNaut miles runAvg speedWind from/ knotsBaromVisibWave heightAir tempDewpointWater temp
2018-Jun-19 15:58S 23°58' W 046°18'3 7.2
2018-Jun-19 15:30S 24°00' W 046°20'4 7.9
2018-Jun-19 15:00S 24°04' W 046°21'4 7.3
2018-Jun-19 14:30S 24°08' W 046°21'3 5.5
2018-Jun-19 14:00S 24°10' W 046°19'3 5.7
2018-Jun-19 13:30S 24°11' W 046°16'3 6.0
2018-Jun-19 13:00S 24°10' W 046°13'0 0.6
2018-Jun-19 12:30S 24°10' W 046°13'0 0.0
2018-Jun-19 11:51S 24°10' W 046°13'0 0.0
2018-Jun-19 11:30S 24°10' W 046°13'0 0.0
2018-Jun-19 10:57S 24°10' W 046°13'0 0.0
2018-Jun-19 10:27S 24°10' W 046°13'0 0.0
2018-Jun-19 09:57S 24°10' W 046°13'0 0.1
2018-Jun-19 09:24S 24°10' W 046°13'0 0.0
2018-Jun-19 09:00S 24°10' W 046°13'0 0.0
2018-Jun-19 08:30S 24°10' W 046°13'0 0.0
2018-Jun-19 07:54S 24°10' W 046°13'0 0.0
2018-Jun-19 07:15S 24°10' W 046°13'0 0.0
2018-Jun-19 07:00S 24°10' W 046°13'0 0.0
2018-Jun-19 06:27S 24°10' W 046°13'0 0.1
2018-Jun-19 05:57S 24°10' W 046°13'0 0.1
2018-Jun-19 05:30S 24°10' W 046°13'0 0.1
2018-Jun-19 05:00S 24°10' W 046°13'0 0.0
2018-Jun-19 04:30S 24°10' W 046°13'0 0.0
2018-Jun-19 04:00S 24°10' W 046°13'0 0.0
2018-Jun-19 03:24S 24°10' W 046°13'0 0.0
2018-Jun-19 03:00S 24°10' W 046°13'0 0.0
2018-Jun-19 02:27S 24°10' W 046°13'0 0.1
2018-Jun-19 02:00S 24°10' W 046°13'0 0.0
2018-Jun-19 01:21S 24°10' W 046°13'0 0.0
2018-Jun-19 00:33S 24°10' W 046°13'0 0.2
2018-Jun-19 00:27S 24°10' W 046°13'0 0.1
2018-Jun-18 23:57S 24°10' W 046°13'0 0.1
2018-Jun-18 23:27S 24°10' W 046°13'0 0.0
2018-Jun-18 22:57S 24°10' W 046°13'0 0.0
2018-Jun-18 22:30S 24°10' W 046°13'0 0.1
2018-Jun-18 21:57S 24°10' W 046°13'0 0.1
2018-Jun-18 21:27S 24°10' W 046°13'0 0.0
2018-Jun-18 20:51S 24°10' W 046°13'0 0.0
2018-Jun-18 20:30S 24°10' W 046°13'0 0.0
2018-Jun-18 19:51S 24°10' W 046°13'0 0.0
2018-Jun-18 19:27S 24°10' W 046°13'0 0.0
2018-Jun-18 18:54S 24°10' W 046°13'0 0.1
2018-Jun-18 18:30S 24°10' W 046°13'0 0.0
2018-Jun-18 17:57S 24°10' W 046°13'0 0.0
2018-Jun-18 16:54S 24°10' W 046°12'0 0.0
2018-Jun-18 12:42S 24°10' W 046°12'0 0.0
2018-Jun-18 12:03S 24°10' W 046°12'0 0.0
2018-Jun-18 11:39S 24°10' W 046°12'0 0.0
2018-Jun-18 11:21S 24°10' W 046°12'0 0.0
2018-Jun-18 10:57S 24°10' W 046°12'0 0.0
2018-Jun-18 10:24S 24°10' W 046°12'0 0.0
2018-Jun-18 09:57S 24°10' W 046°12'0 0.0
2018-Jun-18 09:27S 24°10' W 046°12'0 0.0
2018-Jun-18 08:57S 24°10' W 046°12'0 0.0
2018-Jun-18 08:30S 24°10' W 046°12'0 0.0
2018-Jun-18 07:57S 24°10' W 046°12'0 0.0
2018-Jun-18 07:21S 24°10' W 046°12'0 0.0
2018-Jun-18 07:00S 24°10' W 046°12'0 0.0
2018-Jun-18 06:18S 24°10' W 046°12'0 0.0
2018-Jun-18 05:57S 24°10' W 046°12'0 0.0
2018-Jun-18 05:21S 24°10' W 046°12'0 0.0
2018-Jun-18 05:00S 24°10' W 046°12'0 0.0
2018-Jun-18 04:27S 24°10' W 046°12'0 0.0
2018-Jun-18 04:00S 24°10' W 046°12'0 0.0
2018-Jun-18 03:27S 24°10' W 046°12'0 0.0
2018-Jun-18 02:42S 24°10' W 046°12'0 0.0
2018-Jun-18 02:30S 24°10' W 046°12'0 0.0
2018-Jun-18 01:57S 24°10' W 046°12'0 0.0
2018-Jun-18 00:57S 24°10' W 046°12'0 0.0
2018-Jun-18 00:27S 24°10' W 046°12'0 0.0
2018-Jun-17 23:51S 24°10' W 046°12'0 0.0
2018-Jun-17 23:15S 24°10' W 046°12'0 0.0
2018-Jun-17 22:45S 24°10' W 046°12'0 0.0
2018-Jun-17 22:27S 24°10' W 046°12'0 0.0
2018-Jun-17 21:57S 24°10' W 046°12'0 0.0
2018-Jun-17 20:21S 24°10' W 046°12'0 0.0
2018-Jun-17 20:00S 24°10' W 046°12'0 0.0
2018-Jun-17 17:18S 24°10' W 046°12'0 0.0
2018-Jun-17 14:51S 24°10' W 046°12'0 0.0
2018-Jun-17 14:21S 24°10' W 046°12'0 0.0
2018-Jun-17 13:15S 24°10' W 046°12'0 0.0
2018-Jun-17 09:30S 24°10' W 046°12'0 0.0
2018-Jun-17 02:24S 24°10' W 046°13'0 0.0
2018-Jun-17 01:54S 24°10' W 046°13'0 0.0
2018-Jun-17 01:30S 24°10' W 046°13'0 0.0
2018-Jun-17 01:00S 24°10' W 046°13'0 0.0
2018-Jun-16 23:06S 24°10' W 046°13'0 0.0
2018-Jun-16 22:45S 24°10' W 046°13'0 0.0
2018-Jun-16 22:21S 24°10' W 046°13'0 0.0
2018-Jun-16 21:57S 24°10' W 046°13'0 0.0
2018-Jun-16 21:30S 24°10' W 046°13'0 0.0
2018-Jun-16 21:00S 24°10' W 046°13'0 0.0
2018-Jun-16 20:30S 24°10' W 046°13'0 0.0
2018-Jun-16 19:57S 24°10' W 046°13'0 0.0
2018-Jun-16 19:27S 24°10' W 046°13'0 0.0
2018-Jun-16 19:00S 24°10' W 046°13'0 0.0
2018-Jun-16 18:21S 24°10' W 046°13'0 0.0
2018-Jun-16 17:54S 24°10' W 046°13'0 0.0
2018-Jun-16 17:09S 24°10' W 046°13'0 0.1
2018-Jun-16 16:51S 24°10' W 046°13'0 0.0
2018-Jun-16 16:15S 24°10' W 046°13'0 0.1
2018-Jun-16 15:57S 24°10' W 046°13'0 0.0
2018-Jun-16 15:27S 24°10' W 046°13'0 0.0
2018-Jun-16 15:00S 24°10' W 046°13'0 0.0
2018-Jun-16 13:54S 24°10' W 046°13'0 0.0
2018-Jun-16 11:33S 24°10' W 046°12'0 0.0
2018-Jun-16 06:45S 24°10' W 046°13'0 0.1
2018-Jun-16 06:24S 24°10' W 046°13'0 0.0
2018-Jun-16 06:00S 24°10' W 046°13'0 0.0
2018-Jun-16 05:30S 24°10' W 046°13'0 0.0
2018-Jun-16 05:00S 24°10' W 046°13'0 0.0
2018-Jun-16 04:27S 24°10' W 046°13'0 0.0
2018-Jun-16 03:57S 24°10' W 046°13'0 0.0
2018-Jun-16 03:27S 24°10' W 046°13'0 0.0
2018-Jun-16 03:00S 24°10' W 046°13'0 0.0
2018-Jun-16 02:27S 24°10' W 046°13'0 0.0
2018-Jun-16 01:57S 24°10' W 046°13'0 0.0
2018-Jun-16 01:27S 24°10' W 046°13'0 0.0
2018-Jun-15 23:57S 24°10' W 046°13'0 0.0
2018-Jun-15 23:27S 24°10' W 046°13'0 0.0
2018-Jun-15 22:57S 24°10' W 046°13'0 0.0
2018-Jun-15 22:27S 24°10' W 046°13'0 0.0
2018-Jun-15 20:21S 24°10' W 046°13'0 0.0
2018-Jun-15 19:45S 24°10' W 046°13'0 0.0
2018-Jun-15 19:21S 24°10' W 046°13'0 0.0
2018-Jun-15 18:57S 24°10' W 046°13'0 0.0
2018-Jun-15 18:30S 24°10' W 046°13'0 0.0
2018-Jun-15 17:45S 24°10' W 046°13'0 0.0
2018-Jun-15 17:27S 24°10' W 046°13'0 0.0
2018-Jun-15 16:51S 24°10' W 046°13'0 0.0
2018-Jun-15 16:27S 24°10' W 046°13'0 0.0
2018-Jun-15 15:57S 24°10' W 046°13'0 0.0
2018-Jun-15 14:39S 24°10' W 046°13'0 0.0
2018-Jun-15 14:18S 24°10' W 046°13'0 0.0
2018-Jun-15 13:57S 24°10' W 046°13'0 0.0
2018-Jun-15 12:03S 24°10' W 046°13'0 0.0
2018-Jun-15 11:45S 24°10' W 046°13'0 0.0
2018-Jun-15 10:24S 24°10' W 046°13'0 0.0
2018-Jun-15 08:15S 24°10' W 046°13'0 0.0
2018-Jun-15 07:45S 24°10' W 046°13'0 0.0
2018-Jun-15 07:30S 24°10' W 046°13'0 0.0
2018-Jun-15 05:54S 24°10' W 046°13'0 0.0
2018-Jun-15 05:21S 24°10' W 046°13'0 0.0
2018-Jun-15 04:51S 24°10' W 046°13'0 0.0
2018-Jun-15 04:24S 24°10' W 046°13'0 0.0
2018-Jun-15 03:45S 24°10' W 046°13'0 0.0
2018-Jun-15 00:33S 24°10' W 046°13'0 0.0
2018-Jun-14 20:03S 24°10' W 046°13'0 0.0
2018-Jun-14 19:45S 24°10' W 046°13'0 0.0
2018-Jun-14 19:27S 24°10' W 046°13'0 0.0
2018-Jun-14 18:57S 24°10' W 046°13'0 0.0
2018-Jun-14 18:27S 24°10' W 046°13'0 0.0
2018-Jun-14 17:57S 24°10' W 046°13'0 0.0
2018-Jun-14 17:27S 24°10' W 046°13'0 0.0
2018-Jun-14 16:57S 24°10' W 046°13'0 0.0
2018-Jun-14 16:30S 24°10' W 046°13'0 0.0
2018-Jun-14 15:57S 24°10' W 046°13'0 0.0
2018-Jun-14 15:27S 24°10' W 046°13'0 0.0
2018-Jun-14 14:57S 24°10' W 046°13'0 0.0
2018-Jun-14 14:27S 24°10' W 046°13'0 0.0
2018-Jun-14 13:54S 24°10' W 046°13'0 0.0
2018-Jun-14 13:27S 24°10' W 046°13'0 0.0
2018-Jun-14 13:00S 24°10' W 046°13'0 0.0
2018-Jun-14 12:30S 24°10' W 046°13'0 0.0
2018-Jun-14 11:57S 24°10' W 046°13'0 0.0
2018-Jun-14 11:27S 24°10' W 046°13'0 0.1
2018-Jun-14 11:00S 24°10' W 046°13'0 0.0
2018-Jun-14 10:24S 24°10' W 046°13'0 0.0
2018-Jun-14 09:51S 24°10' W 046°13'0 0.0
2018-Jun-14 09:21S 24°10' W 046°13'0 0.0
2018-Jun-14 07:27S 24°10' W 046°13'0 0.0
2018-Jun-14 06:33S 24°10' W 046°13'0 0.1
2018-Jun-14 06:27S 24°10' W 046°13'0 0.0
2018-Jun-14 05:51S 24°10' W 046°13'0 0.0
2018-Jun-14 05:12S 24°10' W 046°13'0 0.0
2018-Jun-14 05:00S 24°10' W 046°13'0 0.0
2018-Jun-13 21:21S 24°10' W 046°12'0 0.0
2018-Jun-13 20:57S 24°10' W 046°12'0 0.0
2018-Jun-13 19:24S 24°10' W 046°12'0 0.0
2018-Jun-13 18:57S 24°10' W 046°12'0 0.0
2018-Jun-13 18:15S 24°10' W 046°12'0 0.0
2018-Jun-13 17:57S 24°10' W 046°12'0 0.0
2018-Jun-13 17:27S 24°10' W 046°12'0 0.0
2018-Jun-13 16:51S 24°10' W 046°12'0 0.0
2018-Jun-13 16:21S 24°10' W 046°12'0 0.1
2018-Jun-13 15:09S 24°10' W 046°12'0 0.1
2018-Jun-13 15:00S 24°10' W 046°12'0 0.0
2018-Jun-13 14:30S 24°10' W 046°12'0 0.0
2018-Jun-13 14:00S 24°10' W 046°12'0 0.1
2018-Jun-13 13:27S 24°10' W 046°13'0 0.0
2018-Jun-13 12:57S 24°10' W 046°13'0 0.0
2018-Jun-13 12:30S 24°10' W 046°13'0 0.0
2018-Jun-13 12:00S 24°10' W 046°13'0 0.0
2018-Jun-13 10:33S 24°10' W 046°13'0 0.0
2018-Jun-13 10:12S 24°10' W 046°13'0 0.0
2018-Jun-13 10:00S 24°10' W 046°13'0 0.0
2018-Jun-13 09:27S 24°10' W 046°13'0 0.0
2018-Jun-13 09:00S 24°10' W 046°13'0 0.1
2018-Jun-13 07:51S 24°10' W 046°13'0 0.2
2018-Jun-13 07:30S 24°10' W 046°13'0 0.1
2018-Jun-13 06:57S 24°10' W 046°13'0 0.0
2018-Jun-13 06:27S 24°10' W 046°13'0 0.1
2018-Jun-13 06:00S 24°10' W 046°13'0 0.0
2018-Jun-13 05:27S 24°10' W 046°13'0 0.0
2018-Jun-13 04:45S 24°10' W 046°13'0 0.0
2018-Jun-13 04:21S 24°10' W 046°13'0 0.0
2018-Jun-13 03:45S 24°10' W 046°13'0 0.1
2018-Jun-13 02:45S 24°10' W 046°13'0 0.1
2018-Jun-13 02:30S 24°10' W 046°13'0 0.1
2018-Jun-13 01:57S 24°10' W 046°13'0 0.1
2018-Jun-13 01:30S 24°10' W 046°13'0 0.0
2018-Jun-13 00:57S 24°10' W 046°13'0 0.0
2018-Jun-13 00:27S 24°10' W 046°13'0 0.1
2018-Jun-13 00:00S 24°10' W 046°13'0 0.1
2018-Jun-12 22:51S 24°10' W 046°12'0 0.0
2018-Jun-12 22:21S 24°10' W 046°12'0 0.0
2018-Jun-12 21:45S 24°10' W 046°12'0 0.0
2018-Jun-12 21:30S 24°10' W 046°12'0 0.0
2018-Jun-12 20:57S 24°10' W 046°12'0 0.0
2018-Jun-12 20:30S 24°10' W 046°12'0 0.0
2018-Jun-12 19:39S 24°10' W 046°12'0 0.1
2018-Jun-12 19:30S 24°10' W 046°12'0 0.0
2018-Jun-12 18:59S 24°10' W 046°12'0 0.1
2018-Jun-12 17:18S 24°10' W 046°13'0 0.0
2018-Jun-12 16:57S 24°10' W 046°13'0 0.0
2018-Jun-12 15:09S 24°10' W 046°13'0 0.1
2018-Jun-12 14:59S 24°10' W 046°13'0 0.1
2018-Jun-12 14:21S 24°10' W 046°13'0 0.0
2018-Jun-12 13:57S 24°10' W 046°13'0 0.1
2018-Jun-12 13:26S 24°10' W 046°13'0 0.0
2018-Jun-12 13:00S 24°10' W 046°13'0 0.1
2018-Jun-12 12:29S 24°10' W 046°13'0 0.1
2018-Jun-12 11:57S 24°10' W 046°12'0 0.0
2018-Jun-12 11:20S 24°10' W 046°12'0 0.1
2018-Jun-12 10:59S 24°10' W 046°12'0 0.0
2018-Jun-12 10:27S 24°10' W 046°12'0 0.1
2018-Jun-12 09:56S 24°10' W 046°13'0 0.0
2018-Jun-12 09:27S 24°10' W 046°13'0 0.0
2018-Jun-12 08:57S 24°10' W 046°13'0 0.0
2018-Jun-12 07:47S 24°10' W 046°13'0 0.0
2018-Jun-12 07:15S 24°10' W 046°13'0 0.1
2018-Jun-12 06:59S 24°10' W 046°13'0 0.0
2018-Jun-12 06:30S 24°10' W 046°13'0 0.0
2018-Jun-12 05:57S 24°10' W 046°13'0 0.0
2018-Jun-12 05:26S 24°10' W 046°13'0 0.1
2018-Jun-12 04:33S 24°10' W 046°13'0 0.0
2018-Jun-12 04:17S 24°10' W 046°13'0 0.1
2018-Jun-12 03:56S 24°10' W 046°13'0 0.0
2018-Jun-12 03:29S 24°10' W 046°13'0 0.0
2018-Jun-12 02:57S 24°10' W 046°13'0 0.0
2018-Jun-12 02:27S 24°10' W 046°13'0 0.0
2018-Jun-12 01:57S 24°10' W 046°13'0 0.0
2018-Jun-12 01:26S 24°10' W 046°13'0 0.0
2018-Jun-12 00:56S 24°10' W 046°13'0 0.0
2018-Jun-12 00:26S 24°10' W 046°13'0 0.0
2018-Jun-11 23:53S 24°10' W 046°13'0 0.0
2018-Jun-11 23:26S 24°10' W 046°13'0 0.0
2018-Jun-11 22:59S 24°10' W 046°13'0 0.0
2018-Jun-11 22:26S 24°10' W 046°13'0 0.0
2018-Jun-11 21:59S 24°10' W 046°13'0 0.0
2018-Jun-11 21:26S 24°10' W 046°13'0 0.0
2018-Jun-11 20:59S 24°10' W 046°13'0 0.0
2018-Jun-11 20:23S 24°10' W 046°13'0 0.0
2018-Jun-11 19:56S 24°10' W 046°13'0 0.0
2018-Jun-11 19:29S 24°10' W 046°13'0 0.0
2018-Jun-11 18:59S 24°10' W 046°13'0 0.0
2018-Jun-11 18:26S 24°10' W 046°13'0 0.0
2018-Jun-11 17:59S 24°10' W 046°13'0 0.0
2018-Jun-11 17:29S 24°10' W 046°13'0 0.0
2018-Jun-11 16:59S 24°10' W 046°13'0 0.0
2018-Jun-11 16:17S 24°10' W 046°13'0 0.0
2018-Jun-11 15:59S 24°10' W 046°13'0 0.1
2018-Jun-11 15:26S 24°10' W 046°13'0 0.1
2018-Jun-11 14:56S 24°10' W 046°13'0 0.1
2018-Jun-11 14:29S 24°10' W 046°13'0 0.0
2018-Jun-11 13:59S 24°10' W 046°13'0 0.0
2018-Jun-11 13:29S 24°10' W 046°13'0 0.0
2018-Jun-11 12:59S 24°10' W 046°13'0 0.0
2018-Jun-11 12:26S 24°10' W 046°13'0 0.0
2018-Jun-11 11:56S 24°10' W 046°13'0 0.0
2018-Jun-11 11:29S 24°10' W 046°13'0 0.0
2018-Jun-11 10:56S 24°10' W 046°13'0 0.0
2018-Jun-11 10:29S 24°10' W 046°13'0 0.0
2018-Jun-11 09:59S 24°10' W 046°13'0 0.0
2018-Jun-11 09:17S 24°10' W 046°13'0 0.0
2018-Jun-11 08:59S 24°10' W 046°13'0 0.0
2018-Jun-11 08:26S 24°10' W 046°13'0 0.0
2018-Jun-11 07:56S 24°10' W 046°13'0 0.0
2018-Jun-11 07:29S 24°10' W 046°13'0 0.0
2018-Jun-11 06:56S 24°10' W 046°13'0 0.1
2018-Jun-11 06:26S 24°10' W 046°13'0 0.0
2018-Jun-11 05:59S 24°10' W 046°13'0 0.0
2018-Jun-11 05:26S 24°10' W 046°13'0 0.0
2018-Jun-11 04:38S 24°10' W 046°13'0 0.0
2018-Jun-11 04:26S 24°10' W 046°13'0 0.0
2018-Jun-11 03:59S 24°10' W 046°13'0 0.0
2018-Jun-11 03:29S 24°10' W 046°13'0 0.0
2018-Jun-11 02:59S 24°10' W 046°13'0 0.0
2018-Jun-11 02:29S 24°10' W 046°13'0 0.0
2018-Jun-11 01:59S 24°10' W 046°13'0 0.0
2018-Jun-11 01:26S 24°10' W 046°13'0 0.0
2018-Jun-11 00:50S 24°10' W 046°13'0 0.0
2018-Jun-11 00:29S 24°10' W 046°13'0 0.0
2018-Jun-10 23:53S 24°10' W 046°13'0 0.0
2018-Jun-10 23:20S 24°10' W 046°13'0 0.0
2018-Jun-10 22:53S 24°10' W 046°13'0 0.0
2018-Jun-10 22:26S 24°10' W 046°13'0 0.0
2018-Jun-10 21:59S 24°10' W 046°13'0 0.0
2018-Jun-10 21:26S 24°10' W 046°13'0 0.0
2018-Jun-10 20:56S 24°10' W 046°13'0 0.0
2018-Jun-10 20:29S 24°10' W 046°13'0 0.0
2018-Jun-10 19:56S 24°10' W 046°13'0 0.0
2018-Jun-10 19:29S 24°10' W 046°13'0 0.0
2018-Jun-10 18:56S 24°10' W 046°13'0 0.0
2018-Jun-10 18:29S 24°10' W 046°13'0 0.0
2018-Jun-10 17:56S 24°10' W 046°13'0 0.0
2018-Jun-10 17:26S 24°10' W 046°13'0 0.0
2018-Jun-10 16:56S 24°10' W 046°13'0 0.0
2018-Jun-10 16:26S 24°10' W 046°13'0 0.0
2018-Jun-10 15:56S 24°10' W 046°13'0 0.0
2018-Jun-10 15:26S 24°10' W 046°13'0 0.0
2018-Jun-10 14:59S 24°10' W 046°13'0 0.0
2018-Jun-10 14:29S 24°10' W 046°13'0 0.0
2018-Jun-10 13:29S 24°10' W 046°13'0 0.0
2018-Jun-10 12:59S 24°10' W 046°13'0 0.0
2018-Jun-10 12:20S 24°10' W 046°13'0 0.0
2018-Jun-10 11:56S 24°10' W 046°13'0 0.0
2018-Jun-10 11:29S 24°10' W 046°13'0 0.1
2018-Jun-10 10:56S 24°10' W 046°13'0 0.1
2018-Jun-10 10:29S 24°10' W 046°13'0 0.0
2018-Jun-10 09:50S 24°10' W 046°13'0 0.0
2018-Jun-10 09:26S 24°10' W 046°13'0 0.0
2018-Jun-10 08:59S 24°10' W 046°13'0 0.0
2018-Jun-10 08:14S 24°10' W 046°13'0 0.0
2018-Jun-10 07:14S 24°10' W 046°13'0 0.1
2018-Jun-10 06:56S 24°10' W 046°13'0 0.1
2018-Jun-10 06:23S 24°10' W 046°13'0 0.0
2018-Jun-10 05:59S 24°10' W 046°13'0 0.0
2018-Jun-10 05:29S 24°10' W 046°13'0 0.1
2018-Jun-10 04:56S 24°10' W 046°13'0 0.0
2018-Jun-10 04:29S 24°10' W 046°13'0 0.1
2018-Jun-10 03:59S 24°10' W 046°13'0 0.0
2018-Jun-10 03:20S 24°10' W 046°13'0 0.1
2018-Jun-10 02:56S 24°10' W 046°13'0 0.0
2018-Jun-10 02:29S 24°10' W 046°13'0 0.1
2018-Jun-10 01:59S 24°10' W 046°13'0 0.0
2018-Jun-10 01:29S 24°10' W 046°13'0 0.1
2018-Jun-10 00:56S 24°10' W 046°13'0 0.0
2018-Jun-10 00:26S 24°10' W 046°13'0 0.1
2018-Jun-09 23:59S 24°10' W 046°13'0 0.0
2018-Jun-09 23:29S 24°10' W 046°13'  
Track history (hours):
 
Tides and Currents Weather Stations Pressure Air Temp Water Temp Dewpoint Dewpoint Depression Visibility Wind Speed Wind Dir Waves Ship Positions

Ben Rinnes

Last reported at 2018-Jun-19 15:58 UTC. Time now 2018-Jun-19 17:44 UTC.
Position S 23°58' W 046°18'.

Length 179 m; draft 10.1 m.

Type: Cargo ship. MMSI: 538006425.

Date/timePositionNaut miles runAvg speedWind from/ knotsBaromVisibWave heightAir tempDewpointWater temp
2018-Jun-19 15:58S 23°58' W 046°18'3 7.2
2018-Jun-19 15:30S 24°00' W 046°20'4 7.9
2018-Jun-19 15:00S 24°04' W 046°21'4 7.3
2018-Jun-19 14:30S 24°08' W 046°21'3 5.5
2018-Jun-19 14:00S 24°10' W 046°19'3 5.7
2018-Jun-19 13:30S 24°11' W 046°16'3 6.0
2018-Jun-19 13:00S 24°10' W 046°13'0 0.6
2018-Jun-19 12:30S 24°10' W 046°13'0 0.0
2018-Jun-19 11:51S 24°10' W 046°13'0 0.0
2018-Jun-19 11:30S 24°10' W 046°13'0 0.0
2018-Jun-19 10:57S 24°10' W 046°13'0 0.0
2018-Jun-19 10:27S 24°10' W 046°13'0 0.0
2018-Jun-19 09:57S 24°10' W 046°13'0 0.1
2018-Jun-19 09:24S 24°10' W 046°13'0 0.0
2018-Jun-19 09:00S 24°10' W 046°13'0 0.0
2018-Jun-19 08:30S 24°10' W 046°13'0 0.0
2018-Jun-19 07:54S 24°10' W 046°13'0 0.0
2018-Jun-19 07:15S 24°10' W 046°13'0 0.0
2018-Jun-19 07:00S 24°10' W 046°13'0 0.0
2018-Jun-19 06:27S 24°10' W 046°13'0 0.1
2018-Jun-19 05:57S 24°10' W 046°13'0 0.1
2018-Jun-19 05:30S 24°10' W 046°13'0 0.1
2018-Jun-19 05:00S 24°10' W 046°13'0 0.0
2018-Jun-19 04:30S 24°10' W 046°13'0 0.0
2018-Jun-19 04:00S 24°10' W 046°13'0 0.0
2018-Jun-19 03:24S 24°10' W 046°13'0 0.0
2018-Jun-19 03:00S 24°10' W 046°13'0 0.0
2018-Jun-19 02:27S 24°10' W 046°13'0 0.1
2018-Jun-19 02:00S 24°10' W 046°13'0 0.0
2018-Jun-19 01:21S 24°10' W 046°13'0 0.0
2018-Jun-19 00:33S 24°10' W 046°13'0 0.2
2018-Jun-19 00:27S 24°10' W 046°13'0 0.1
2018-Jun-18 23:57S 24°10' W 046°13'0 0.1
2018-Jun-18 23:27S 24°10' W 046°13'0 0.0
2018-Jun-18 22:57S 24°10' W 046°13'0 0.0
2018-Jun-18 22:30S 24°10' W 046°13'0 0.1
2018-Jun-18 21:57S 24°10' W 046°13'0 0.1
2018-Jun-18 21:27S 24°10' W 046°13'0 0.0
2018-Jun-18 20:51S 24°10' W 046°13'0 0.0
2018-Jun-18 20:30S 24°10' W 046°13'0 0.0
2018-Jun-18 19:51S 24°10' W 046°13'0 0.0
2018-Jun-18 19:27S 24°10' W 046°13'0 0.0
2018-Jun-18 18:54S 24°10' W 046°13'0 0.1
2018-Jun-18 18:30S 24°10' W 046°13'0 0.0
2018-Jun-18 17:57S 24°10' W 046°13'0 0.0
2018-Jun-18 16:54S 24°10' W 046°12'0 0.0
2018-Jun-18 12:42S 24°10' W 046°12'0 0.0
2018-Jun-18 12:03S 24°10' W 046°12'0 0.0
2018-Jun-18 11:39S 24°10' W 046°12'0 0.0
2018-Jun-18 11:21S 24°10' W 046°12'0 0.0
2018-Jun-18 10:57S 24°10' W 046°12'0 0.0
2018-Jun-18 10:24S 24°10' W 046°12'0 0.0
2018-Jun-18 09:57S 24°10' W 046°12'0 0.0
2018-Jun-18 09:27S 24°10' W 046°12'0 0.0
2018-Jun-18 08:57S 24°10' W 046°12'0 0.0
2018-Jun-18 08:30S 24°10' W 046°12'0 0.0
2018-Jun-18 07:57S 24°10' W 046°12'0 0.0
2018-Jun-18 07:21S 24°10' W 046°12'0 0.0
2018-Jun-18 07:00S 24°10' W 046°12'0 0.0
2018-Jun-18 06:18S 24°10' W 046°12'0 0.0
2018-Jun-18 05:57S 24°10' W 046°12'0 0.0
2018-Jun-18 05:21S 24°10' W 046°12'0 0.0
2018-Jun-18 05:00S 24°10' W 046°12'0 0.0
2018-Jun-18 04:27S 24°10' W 046°12'0 0.0
2018-Jun-18 04:00S 24°10' W 046°12'0 0.0
2018-Jun-18 03:27S 24°10' W 046°12'0 0.0
2018-Jun-18 02:42S 24°10' W 046°12'0 0.0
2018-Jun-18 02:30S 24°10' W 046°12'0 0.0
2018-Jun-18 01:57S 24°10' W 046°12'0 0.0
2018-Jun-18 00:57S 24°10' W 046°12'0 0.0
2018-Jun-18 00:27S 24°10' W 046°12'0 0.0
2018-Jun-17 23:51S 24°10' W 046°12'0 0.0
2018-Jun-17 23:15S 24°10' W 046°12'0 0.0
2018-Jun-17 22:45S 24°10' W 046°12'0 0.0
2018-Jun-17 22:27S 24°10' W 046°12'0 0.0
2018-Jun-17 21:57S 24°10' W 046°12'0 0.0
2018-Jun-17 20:21S 24°10' W 046°12'0 0.0
2018-Jun-17 20:00S 24°10' W 046°12'0 0.0
2018-Jun-17 17:18S 24°10' W 046°12'0 0.0
2018-Jun-17 14:51S 24°10' W 046°12'0 0.0
2018-Jun-17 14:21S 24°10' W 046°12'0 0.0
2018-Jun-17 13:15S 24°10' W 046°12'0 0.0
2018-Jun-17 09:30S 24°10' W 046°12'0 0.0
2018-Jun-17 02:24S 24°10' W 046°13'0 0.0
2018-Jun-17 01:54S 24°10' W 046°13'0 0.0
2018-Jun-17 01:30S 24°10' W 046°13'0 0.0
2018-Jun-17 01:00S 24°10' W 046°13'0 0.0
2018-Jun-16 23:06S 24°10' W 046°13'0 0.0
2018-Jun-16 22:45S 24°10' W 046°13'0 0.0
2018-Jun-16 22:21S 24°10' W 046°13'0 0.0
2018-Jun-16 21:57S 24°10' W 046°13'0 0.0
2018-Jun-16 21:30S 24°10' W 046°13'0 0.0
2018-Jun-16 21:00S 24°10' W 046°13'0 0.0
2018-Jun-16 20:30S 24°10' W 046°13'0 0.0
2018-Jun-16 19:57S 24°10' W 046°13'0 0.0
2018-Jun-16 19:27S 24°10' W 046°13'0 0.0
2018-Jun-16 19:00S 24°10' W 046°13'0 0.0
2018-Jun-16 18:21S 24°10' W 046°13'0 0.0
2018-Jun-16 17:54S 24°10' W 046°13'0 0.0
2018-Jun-16 17:09S 24°10' W 046°13'0 0.1
2018-Jun-16 16:51S 24°10' W 046°13'0 0.0
2018-Jun-16 16:15S 24°10' W 046°13'0 0.1
2018-Jun-16 15:57S 24°10' W 046°13'0 0.0
2018-Jun-16 15:27S 24°10' W 046°13'0 0.0
2018-Jun-16 15:00S 24°10' W 046°13'0 0.0
2018-Jun-16 13:54S 24°10' W 046°13'0 0.0
2018-Jun-16 11:33S 24°10' W 046°12'0 0.0
2018-Jun-16 06:45S 24°10' W 046°13'0 0.1
2018-Jun-16 06:24S 24°10' W 046°13'0 0.0
2018-Jun-16 06:00S 24°10' W 046°13'0 0.0
2018-Jun-16 05:30S 24°10' W 046°13'0 0.0
2018-Jun-16 05:00S 24°10' W 046°13'0 0.0
2018-Jun-16 04:27S 24°10' W 046°13'0 0.0
2018-Jun-16 03:57S 24°10' W 046°13'0 0.0
2018-Jun-16 03:27S 24°10' W 046°13'0 0.0
2018-Jun-16 03:00S 24°10' W 046°13'0 0.0
2018-Jun-16 02:27S 24°10' W 046°13'0 0.0
2018-Jun-16 01:57S 24°10' W 046°13'0 0.0
2018-Jun-16 01:27S 24°10' W 046°13'0 0.0
2018-Jun-15 23:57S 24°10' W 046°13'0 0.0
2018-Jun-15 23:27S 24°10' W 046°13'0 0.0
2018-Jun-15 22:57S 24°10' W 046°13'0 0.0
2018-Jun-15 22:27S 24°10' W 046°13'0 0.0
2018-Jun-15 20:21S 24°10' W 046°13'0 0.0
2018-Jun-15 19:45S 24°10' W 046°13'0 0.0
2018-Jun-15 19:21S 24°10' W 046°13'0 0.0
2018-Jun-15 18:57S 24°10' W 046°13'0 0.0
2018-Jun-15 18:30S 24°10' W 046°13'0 0.0
2018-Jun-15 17:45S 24°10' W 046°13'0 0.0
2018-Jun-15 17:27S 24°10' W 046°13'0 0.0
2018-Jun-15 16:51S 24°10' W 046°13'0 0.0
2018-Jun-15 16:27S 24°10' W 046°13'0 0.0
2018-Jun-15 15:57S 24°10' W 046°13'0 0.0
2018-Jun-15 14:39S 24°10' W 046°13'0 0.0
2018-Jun-15 14:18S 24°10' W 046°13'0 0.0
2018-Jun-15 13:57S 24°10' W 046°13'0 0.0
2018-Jun-15 12:03S 24°10' W 046°13'0 0.0
2018-Jun-15 11:45S 24°10' W 046°13'0 0.0
2018-Jun-15 10:24S 24°10' W 046°13'0 0.0
2018-Jun-15 08:15S 24°10' W 046°13'0 0.0
2018-Jun-15 07:45S 24°10' W 046°13'0 0.0
2018-Jun-15 07:30S 24°10' W 046°13'0 0.0
2018-Jun-15 05:54S 24°10' W 046°13'0 0.0
2018-Jun-15 05:21S 24°10' W 046°13'0 0.0
2018-Jun-15 04:51S 24°10' W 046°13'0 0.0
2018-Jun-15 04:24S 24°10' W 046°13'0 0.0
2018-Jun-15 03:45S 24°10' W 046°13'0 0.0
2018-Jun-15 00:33S 24°10' W 046°13'0 0.0
2018-Jun-14 20:03S 24°10' W 046°13'0 0.0
2018-Jun-14 19:45S 24°10' W 046°13'0 0.0
2018-Jun-14 19:27S 24°10' W 046°13'0 0.0
2018-Jun-14 18:57S 24°10' W 046°13'0 0.0
2018-Jun-14 18:27S 24°10' W 046°13'0 0.0
2018-Jun-14 17:57S 24°10' W 046°13'0 0.0
2018-Jun-14 17:27S 24°10' W 046°13'0 0.0
2018-Jun-14 16:57S 24°10' W 046°13'0 0.0
2018-Jun-14 16:30S 24°10' W 046°13'0 0.0
2018-Jun-14 15:57S 24°10' W 046°13'0 0.0
2018-Jun-14 15:27S 24°10' W 046°13'0 0.0
2018-Jun-14 14:57S 24°10' W 046°13'0 0.0
2018-Jun-14 14:27S 24°10' W 046°13'0 0.0
2018-Jun-14 13:54S 24°10' W 046°13'0 0.0
2018-Jun-14 13:27S 24°10' W 046°13'0 0.0
2018-Jun-14 13:00S 24°10' W 046°13'0 0.0
2018-Jun-14 12:30S 24°10' W 046°13'0 0.0
2018-Jun-14 11:57S 24°10' W 046°13'0 0.0
2018-Jun-14 11:27S 24°10' W 046°13'0 0.1
2018-Jun-14 11:00S 24°10' W 046°13'0 0.0
2018-Jun-14 10:24S 24°10' W 046°13'0 0.0
2018-Jun-14 09:51S 24°10' W 046°13'0 0.0
2018-Jun-14 09:21S 24°10' W 046°13'0 0.0
2018-Jun-14 07:27S 24°10' W 046°13'0 0.0
2018-Jun-14 06:33S 24°10' W 046°13'0 0.1
2018-Jun-14 06:27S 24°10' W 046°13'0 0.0
2018-Jun-14 05:51S 24°10' W 046°13'0 0.0
2018-Jun-14 05:12S 24°10' W 046°13'0 0.0
2018-Jun-14 05:00S 24°10' W 046°13'0 0.0
2018-Jun-13 21:21S 24°10' W 046°12'0 0.0
2018-Jun-13 20:57S 24°10' W 046°12'0 0.0
2018-Jun-13 19:24S 24°10' W 046°12'0 0.0
2018-Jun-13 18:57S 24°10' W 046°12'0 0.0
2018-Jun-13 18:15S 24°10' W 046°12'0 0.0
2018-Jun-13 17:57S 24°10' W 046°12'0 0.0
2018-Jun-13 17:27S 24°10' W 046°12'0 0.0
2018-Jun-13 16:51S 24°10' W 046°12'0 0.0
2018-Jun-13 16:21S 24°10' W 046°12'0 0.1
2018-Jun-13 15:09S 24°10' W 046°12'0 0.1
2018-Jun-13 15:00S 24°10' W 046°12'0 0.0
2018-Jun-13 14:30S 24°10' W 046°12'0 0.0
2018-Jun-13 14:00S 24°10' W 046°12'0 0.1
2018-Jun-13 13:27S 24°10' W 046°13'0 0.0
2018-Jun-13 12:57S 24°10' W 046°13'0 0.0
2018-Jun-13 12:30S 24°10' W 046°13'0 0.0
2018-Jun-13 12:00S 24°10' W 046°13'0 0.0
2018-Jun-13 10:33S 24°10' W 046°13'0 0.0
2018-Jun-13 10:12S 24°10' W 046°13'0 0.0
2018-Jun-13 10:00S 24°10' W 046°13'0 0.0
2018-Jun-13 09:27S 24°10' W 046°13'0 0.0
2018-Jun-13 09:00S 24°10' W 046°13'0 0.1
2018-Jun-13 07:51S 24°10' W 046°13'0 0.2
2018-Jun-13 07:30S 24°10' W 046°13'0 0.1
2018-Jun-13 06:57S 24°10' W 046°13'0 0.0
2018-Jun-13 06:27S 24°10' W 046°13'0 0.1
2018-Jun-13 06:00S 24°10' W 046°13'0 0.0
2018-Jun-13 05:27S 24°10' W 046°13'0 0.0
2018-Jun-13 04:45S 24°10' W 046°13'0 0.0
2018-Jun-13 04:21S 24°10' W 046°13'0 0.0
2018-Jun-13 03:45S 24°10' W 046°13'0 0.1
2018-Jun-13 02:45S 24°10' W 046°13'0 0.1
2018-Jun-13 02:30S 24°10' W 046°13'0 0.1
2018-Jun-13 01:57S 24°10' W 046°13'0 0.1
2018-Jun-13 01:30S 24°10' W 046°13'0 0.0
2018-Jun-13 00:57S 24°10' W 046°13'0 0.0
2018-Jun-13 00:27S 24°10' W 046°13'0 0.1
2018-Jun-13 00:00S 24°10' W 046°13'0 0.1
2018-Jun-12 22:51S 24°10' W 046°12'0 0.0
2018-Jun-12 22:21S 24°10' W 046°12'0 0.0
2018-Jun-12 21:45S 24°10' W 046°12'0 0.0
2018-Jun-12 21:30S 24°10' W 046°12'0 0.0
2018-Jun-12 20:57S 24°10' W 046°12'0 0.0
2018-Jun-12 20:30S 24°10' W 046°12'0 0.0
2018-Jun-12 19:39S 24°10' W 046°12'0 0.1
2018-Jun-12 19:30S 24°10' W 046°12'0 0.0
2018-Jun-12 18:59S 24°10' W 046°12'0 0.1
2018-Jun-12 17:18S 24°10' W 046°13'0 0.0
2018-Jun-12 16:57S 24°10' W 046°13'0 0.0
2018-Jun-12 15:09S 24°10' W 046°13'0 0.1
2018-Jun-12 14:59S 24°10' W 046°13'0 0.1
2018-Jun-12 14:21S 24°10' W 046°13'0 0.0
2018-Jun-12 13:57S 24°10' W 046°13'0 0.1
2018-Jun-12 13:26S 24°10' W 046°13'0 0.0
2018-Jun-12 13:00S 24°10' W 046°13'0 0.1
2018-Jun-12 12:29S 24°10' W 046°13'0 0.1
2018-Jun-12 11:57S 24°10' W 046°12'0 0.0
2018-Jun-12 11:20S 24°10' W 046°12'0 0.1
2018-Jun-12 10:59S 24°10' W 046°12'0 0.0
2018-Jun-12 10:27S 24°10' W 046°12'0 0.1
2018-Jun-12 09:56S 24°10' W 046°13'0 0.0
2018-Jun-12 09:27S 24°10' W 046°13'0 0.0
2018-Jun-12 08:57S 24°10' W 046°13'0 0.0
2018-Jun-12 07:47S 24°10' W 046°13'0 0.0
2018-Jun-12 07:15S 24°10' W 046°13'0 0.1
2018-Jun-12 06:59S 24°10' W 046°13'0 0.0
2018-Jun-12 06:30S 24°10' W 046°13'0 0.0
2018-Jun-12 05:57S 24°10' W 046°13'0 0.0
2018-Jun-12 05:26S 24°10' W 046°13'0 0.1
2018-Jun-12 04:33S 24°10' W 046°13'0 0.0
2018-Jun-12 04:17S 24°10' W 046°13'0 0.1
2018-Jun-12 03:56S 24°10' W 046°13'0 0.0
2018-Jun-12 03:29S 24°10' W 046°13'0 0.0
2018-Jun-12 02:57S 24°10' W 046°13'0 0.0
2018-Jun-12 02:27S 24°10' W 046°13'0 0.0
2018-Jun-12 01:57S 24°10' W 046°13'0 0.0
2018-Jun-12 01:26S 24°10' W 046°13'0 0.0
2018-Jun-12 00:56S 24°10' W 046°13'0 0.0
2018-Jun-12 00:26S 24°10' W 046°13'0 0.0
2018-Jun-11 23:53S 24°10' W 046°13'0 0.0
2018-Jun-11 23:26S 24°10' W 046°13'0 0.0
2018-Jun-11 22:59S 24°10' W 046°13'0 0.0
2018-Jun-11 22:26S 24°10' W 046°13'0 0.0
2018-Jun-11 21:59S 24°10' W 046°13'0 0.0
2018-Jun-11 21:26S 24°10' W 046°13'0 0.0
2018-Jun-11 20:59S 24°10' W 046°13'0 0.0
2018-Jun-11 20:23S 24°10' W 046°13'0 0.0
2018-Jun-11 19:56S 24°10' W 046°13'0 0.0
2018-Jun-11 19:29S 24°10' W 046°13'0 0.0
2018-Jun-11 18:59S 24°10' W 046°13'0 0.0
2018-Jun-11 18:26S 24°10' W 046°13'0 0.0
2018-Jun-11 17:59S 24°10' W 046°13'0 0.0
2018-Jun-11 17:29S 24°10' W 046°13'0 0.0
2018-Jun-11 16:59S 24°10' W 046°13'0 0.0
2018-Jun-11 16:17S 24°10' W 046°13'0 0.0
2018-Jun-11 15:59S 24°10' W 046°13'0 0.1
2018-Jun-11 15:26S 24°10' W 046°13'0 0.1
2018-Jun-11 14:56S 24°10' W 046°13'0 0.1
2018-Jun-11 14:29S 24°10' W 046°13'0 0.0
2018-Jun-11 13:59S 24°10' W 046°13'0 0.0
2018-Jun-11 13:29S 24°10' W 046°13'0 0.0
2018-Jun-11 12:59S 24°10' W 046°13'0 0.0
2018-Jun-11 12:26S 24°10' W 046°13'0 0.0
2018-Jun-11 11:56S 24°10' W 046°13'0 0.0
2018-Jun-11 11:29S 24°10' W 046°13'0 0.0
2018-Jun-11 10:56S 24°10' W 046°13'0 0.0
2018-Jun-11 10:29S 24°10' W 046°13'0 0.0
2018-Jun-11 09:59S 24°10' W 046°13'0 0.0
2018-Jun-11 09:17S 24°10' W 046°13'0 0.0
2018-Jun-11 08:59S 24°10' W 046°13'0 0.0
2018-Jun-11 08:26S 24°10' W 046°13'0 0.0
2018-Jun-11 07:56S 24°10' W 046°13'0 0.0
2018-Jun-11 07:29S 24°10' W 046°13'0 0.0
2018-Jun-11 06:56S 24°10' W 046°13'0 0.1
2018-Jun-11 06:26S 24°10' W 046°13'0 0.0
2018-Jun-11 05:59S 24°10' W 046°13'0 0.0
2018-Jun-11 05:26S 24°10' W 046°13'0 0.0
2018-Jun-11 04:38S 24°10' W 046°13'0 0.0
2018-Jun-11 04:26S 24°10' W 046°13'0 0.0
2018-Jun-11 03:59S 24°10' W 046°13'0 0.0
2018-Jun-11 03:29S 24°10' W 046°13'0 0.0
2018-Jun-11 02:59S 24°10' W 046°13'0 0.0
2018-Jun-11 02:29S 24°10' W 046°13'0 0.0
2018-Jun-11 01:59S 24°10' W 046°13'0 0.0
2018-Jun-11 01:26S 24°10' W 046°13'0 0.0
2018-Jun-11 00:50S 24°10' W 046°13'0 0.0
2018-Jun-11 00:29S 24°10' W 046°13'0 0.0
2018-Jun-10 23:53S 24°10' W 046°13'0 0.0
2018-Jun-10 23:20S 24°10' W 046°13'0 0.0
2018-Jun-10 22:53S 24°10' W 046°13'0 0.0
2018-Jun-10 22:26S 24°10' W 046°13'0 0.0
2018-Jun-10 21:59S 24°10' W 046°13'0 0.0
2018-Jun-10 21:26S 24°10' W 046°13'0 0.0
2018-Jun-10 20:56S 24°10' W 046°13'0 0.0
2018-Jun-10 20:29S 24°10' W 046°13'0 0.0
2018-Jun-10 19:56S 24°10' W 046°13'0 0.0
2018-Jun-10 19:29S 24°10' W 046°13'0 0.0
2018-Jun-10 18:56S 24°10' W 046°13'0 0.0
2018-Jun-10 18:29S 24°10' W 046°13'0 0.0
2018-Jun-10 17:56S 24°10' W 046°13'0 0.0
2018-Jun-10 17:26S 24°10' W 046°13'0 0.0
2018-Jun-10 16:56S 24°10' W 046°13'0 0.0
2018-Jun-10 16:26S 24°10' W 046°13'0 0.0
2018-Jun-10 15:56S 24°10' W 046°13'0 0.0
2018-Jun-10 15:26S 24°10' W 046°13'0 0.0
2018-Jun-10 14:59S 24°10' W 046°13'0 0.0
2018-Jun-10 14:29S 24°10' W 046°13'0 0.0
2018-Jun-10 13:29S 24°10' W 046°13'0 0.0
2018-Jun-10 12:59S 24°10' W 046°13'0 0.0
2018-Jun-10 12:20S 24°10' W 046°13'0 0.0
2018-Jun-10 11:56S 24°10' W 046°13'0 0.0
2018-Jun-10 11:29S 24°10' W 046°13'0 0.1
2018-Jun-10 10:56S 24°10' W 046°13'0 0.1
2018-Jun-10 10:29S 24°10' W 046°13'0 0.0
2018-Jun-10 09:50S 24°10' W 046°13'0 0.0
2018-Jun-10 09:26S 24°10' W 046°13'0 0.0
2018-Jun-10 08:59S 24°10' W 046°13'0 0.0
2018-Jun-10 08:14S 24°10' W 046°13'0 0.0
2018-Jun-10 07:14S 24°10' W 046°13'0 0.1
2018-Jun-10 06:56S 24°10' W 046°13'0 0.1
2018-Jun-10 06:23S 24°10' W 046°13'0 0.0
2018-Jun-10 05:59S 24°10' W 046°13'0 0.0
2018-Jun-10 05:29S 24°10' W 046°13'0 0.1
2018-Jun-10 04:56S 24°10' W 046°13'0 0.0
2018-Jun-10 04:29S 24°10' W 046°13'0 0.1
2018-Jun-10 03:59S 24°10' W 046°13'0 0.0
2018-Jun-10 03:20S 24°10' W 046°13'0 0.1
2018-Jun-10 02:56S 24°10' W 046°13'0 0.0
2018-Jun-10 02:29S 24°10' W 046°13'0 0.1
2018-Jun-10 01:59S 24°10' W 046°13'0 0.0
2018-Jun-10 01:29S 24°10' W 046°13'0 0.1
2018-Jun-10 00:56S 24°10' W 046°13'0 0.0
2018-Jun-10 00:26S 24°10' W 046°13'0 0.1
2018-Jun-09 23:59S 24°10' W 046°13'0 0.0
2018-Jun-09 23:29S 24°10' W 046°13'  

Dump ship's entire track history